sensor_id;sensor_type;location;lat;lon;timestamp;P1;durP1;ratioP1;P2;durP2;ratioP2
34767;SDS011;21755;43.608;1.236;2022-10-13T00:02:05;8.50;;;3.47;;
34767;SDS011;21755;43.608;1.236;2022-10-13T00:04:31;7.53;;;3.10;;
34767;SDS011;21755;43.608;1.236;2022-10-13T00:06:57;14.73;;;4.20;;
34767;SDS011;21755;43.608;1.236;2022-10-13T00:09:23;8.73;;;3.20;;
34767;SDS011;21755;43.608;1.236;2022-10-13T00:11:49;10.25;;;4.35;;
34767;SDS011;21755;43.608;1.236;2022-10-13T00:14:15;14.27;;;3.67;;
34767;SDS011;21755;43.608;1.236;2022-10-13T00:16:41;11.95;;;3.63;;
34767;SDS011;21755;43.608;1.236;2022-10-13T00:19:07;14.25;;;3.50;;
34767;SDS011;21755;43.608;1.236;2022-10-13T00:21:33;6.10;;;3.03;;
34767;SDS011;21755;43.608;1.236;2022-10-13T00:23:59;10.02;;;3.47;;
34767;SDS011;21755;43.608;1.236;2022-10-13T00:26:25;10.05;;;4.13;;
34767;SDS011;21755;43.608;1.236;2022-10-13T00:28:52;12.85;;;4.47;;
34767;SDS011;21755;43.608;1.236;2022-10-13T00:31:27;12.85;;;3.72;;
34767;SDS011;21755;43.608;1.236;2022-10-13T00:36:51;14.23;;;4.20;;
34767;SDS011;21755;43.608;1.236;2022-10-13T00:39:17;8.02;;;3.33;;
34767;SDS011;21755;43.608;1.236;2022-10-13T00:41:43;7.47;;;3.15;;
34767;SDS011;21755;43.608;1.236;2022-10-13T00:47:12;9.45;;;4.57;;
34767;SDS011;21755;43.608;1.236;2022-10-13T00:49:38;10.18;;;4.25;;
34767;SDS011;21755;43.608;1.236;2022-10-13T00:52:04;10.93;;;4.50;;
34767;SDS011;21755;43.608;1.236;2022-10-13T00:54:30;14.55;;;4.57;;
34767;SDS011;21755;43.608;1.236;2022-10-13T00:56:56;19.80;;;5.03;;
34767;SDS011;21755;43.608;1.236;2022-10-13T00:59:23;12.80;;;4.95;;
34767;SDS011;21755;43.608;1.236;2022-10-13T01:01:53;12.25;;;3.78;;
34767;SDS011;21755;43.608;1.236;2022-10-13T01:04:22;10.02;;;4.13;;
34767;SDS011;21755;43.608;1.236;2022-10-13T01:06:51;12.18;;;3.92;;
34767;SDS011;21755;43.608;1.236;2022-10-13T01:09:24;9.27;;;3.78;;
34767;SDS011;21755;43.608;1.236;2022-10-13T01:11:54;11.50;;;4.07;;
34767;SDS011;21755;43.608;1.236;2022-10-13T01:21:32;14.00;;;3.92;;
34767;SDS011;21755;43.608;1.236;2022-10-13T01:35:15;11.82;;;3.95;;
34767;SDS011;21755;43.608;1.236;2022-10-13T01:38:04;8.68;;;4.75;;
34767;SDS011;21755;43.608;1.236;2022-10-13T01:41:24;16.30;;;3.58;;
34767;SDS011;21755;43.608;1.236;2022-10-13T01:44:02;13.60;;;4.15;;
34767;SDS011;21755;43.608;1.236;2022-10-13T01:46:37;9.40;;;4.22;;
34767;SDS011;21755;43.608;1.236;2022-10-13T01:49:04;11.98;;;4.18;;
34767;SDS011;21755;43.608;1.236;2022-10-13T01:54:56;11.32;;;3.80;;
34767;SDS011;21755;43.608;1.236;2022-10-13T01:57:47;9.23;;;3.70;;
34767;SDS011;21755;43.608;1.236;2022-10-13T02:00:17;12.95;;;4.00;;
34767;SDS011;21755;43.608;1.236;2022-10-13T02:05:44;9.75;;;3.72;;
34767;SDS011;21755;43.608;1.236;2022-10-13T02:11:17;9.20;;;4.05;;
34767;SDS011;21755;43.608;1.236;2022-10-13T02:16:14;17.33;;;4.82;;
34767;SDS011;21755;43.608;1.236;2022-10-13T02:18:40;7.88;;;3.88;;
34767;SDS011;21755;43.608;1.236;2022-10-13T02:21:07;12.25;;;4.45;;
34767;SDS011;21755;43.608;1.236;2022-10-13T02:23:34;16.27;;;4.68;;
34767;SDS011;21755;43.608;1.236;2022-10-13T02:32:44;11.02;;;4.38;;
34767;SDS011;21755;43.608;1.236;2022-10-13T02:35:10;12.23;;;4.38;;
34767;SDS011;21755;43.608;1.236;2022-10-13T02:37:36;14.10;;;4.47;;
34767;SDS011;21755;43.608;1.236;2022-10-13T02:40:02;9.43;;;3.83;;
34767;SDS011;21755;43.608;1.236;2022-10-13T02:42:28;14.52;;;4.38;;
34767;SDS011;21755;43.608;1.236;2022-10-13T02:44:54;10.15;;;4.00;;
34767;SDS011;21755;43.608;1.236;2022-10-13T02:47:20;12.57;;;4.85;;
34767;SDS011;21755;43.608;1.236;2022-10-13T02:49:46;10.25;;;4.65;;
34767;SDS011;21755;43.608;1.236;2022-10-13T02:52:12;11.35;;;4.60;;
34767;SDS011;21755;43.608;1.236;2022-10-13T02:54:38;13.15;;;4.30;;
34767;SDS011;21755;43.608;1.236;2022-10-13T02:57:04;10.38;;;4.35;;
34767;SDS011;21755;43.608;1.236;2022-10-13T02:59:30;7.90;;;4.53;;
34767;SDS011;21755;43.608;1.236;2022-10-13T03:01:56;10.00;;;4.45;;
34767;SDS011;21755;43.608;1.236;2022-10-13T03:04:22;16.23;;;4.63;;
34767;SDS011;21755;43.608;1.236;2022-10-13T03:06:48;15.90;;;4.90;;
34767;SDS011;21755;43.608;1.236;2022-10-13T03:09:14;9.35;;;4.43;;
34767;SDS011;21755;43.608;1.236;2022-10-13T03:11:40;14.98;;;5.05;;
34767;SDS011;21755;43.608;1.236;2022-10-13T03:14:05;7.85;;;4.03;;
34767;SDS011;21755;43.608;1.236;2022-10-13T03:16:31;13.55;;;4.57;;
34767;SDS011;21755;43.608;1.236;2022-10-13T03:18:57;9.15;;;4.20;;
34767;SDS011;21755;43.608;1.236;2022-10-13T03:21:23;11.05;;;5.40;;
34767;SDS011;21755;43.608;1.236;2022-10-13T03:23:49;11.95;;;5.60;;
34767;SDS011;21755;43.608;1.236;2022-10-13T03:26:15;12.55;;;5.82;;
34767;SDS011;21755;43.608;1.236;2022-10-13T03:28:41;22.65;;;5.97;;
34767;SDS011;21755;43.608;1.236;2022-10-13T03:31:09;13.00;;;5.40;;
34767;SDS011;21755;43.608;1.236;2022-10-13T03:33:36;10.90;;;4.65;;
34767;SDS011;21755;43.608;1.236;2022-10-13T03:36:04;17.13;;;4.25;;
34767;SDS011;21755;43.608;1.236;2022-10-13T03:38:32;16.17;;;4.85;;
34767;SDS011;21755;43.608;1.236;2022-10-13T03:41:11;11.07;;;4.05;;
34767;SDS011;21755;43.608;1.236;2022-10-13T03:43:39;9.32;;;4.47;;
34767;SDS011;21755;43.608;1.236;2022-10-13T03:46:22;10.60;;;5.25;;
34767;SDS011;21755;43.608;1.236;2022-10-13T03:52:32;12.05;;;3.50;;
34767;SDS011;21755;43.608;1.236;2022-10-13T04:08:25;12.20;;;4.32;;
34767;SDS011;21755;43.608;1.236;2022-10-13T04:11:10;10.20;;;4.45;;
34767;SDS011;21755;43.608;1.236;2022-10-13T04:20:40;15.80;;;5.15;;
34767;SDS011;21755;43.608;1.236;2022-10-13T04:23:24;9.27;;;4.45;;
34767;SDS011;21755;43.608;1.236;2022-10-13T04:25:50;18.75;;;5.40;;
34767;SDS011;21755;43.608;1.236;2022-10-13T04:28:17;6.35;;;3.90;;
34767;SDS011;21755;43.608;1.236;2022-10-13T04:30:43;13.60;;;4.70;;
34767;SDS011;21755;43.608;1.236;2022-10-13T04:33:09;12.63;;;5.07;;
34767;SDS011;21755;43.608;1.236;2022-10-13T04:35:38;9.57;;;3.83;;
34767;SDS011;21755;43.608;1.236;2022-10-13T04:38:06;11.70;;;4.68;;
34767;SDS011;21755;43.608;1.236;2022-10-13T04:40:32;16.60;;;5.03;;
34767;SDS011;21755;43.608;1.236;2022-10-13T04:42:58;10.32;;;5.38;;
34767;SDS011;21755;43.608;1.236;2022-10-13T04:45:24;10.68;;;5.22;;
34767;SDS011;21755;43.608;1.236;2022-10-13T04:47:51;13.02;;;5.50;;
34767;SDS011;21755;43.608;1.236;2022-10-13T04:50:17;11.45;;;5.00;;
34767;SDS011;21755;43.608;1.236;2022-10-13T04:52:44;11.05;;;5.10;;
34767;SDS011;21755;43.608;1.236;2022-10-13T04:55:10;10.95;;;4.78;;
34767;SDS011;21755;43.608;1.236;2022-10-13T04:57:36;11.98;;;4.70;;
34767;SDS011;21755;43.608;1.236;2022-10-13T05:00:02;14.75;;;4.93;;
34767;SDS011;21755;43.608;1.236;2022-10-13T05:02:31;12.68;;;4.93;;
34767;SDS011;21755;43.608;1.236;2022-10-13T05:04:59;17.05;;;5.20;;
34767;SDS011;21755;43.608;1.236;2022-10-13T05:07:25;12.95;;;5.03;;
34767;SDS011;21755;43.608;1.236;2022-10-13T05:09:51;13.18;;;5.80;;
34767;SDS011;21755;43.608;1.236;2022-10-13T05:12:17;16.73;;;5.20;;
34767;SDS011;21755;43.608;1.236;2022-10-13T05:14:43;10.35;;;5.10;;
34767;SDS011;21755;43.608;1.236;2022-10-13T05:17:09;13.30;;;5.75;;
34767;SDS011;21755;43.608;1.236;2022-10-13T05:19:35;14.32;;;5.07;;
34767;SDS011;21755;43.608;1.236;2022-10-13T05:22:01;16.50;;;5.30;;
34767;SDS011;21755;43.608;1.236;2022-10-13T05:24:27;9.32;;;4.53;;
34767;SDS011;21755;43.608;1.236;2022-10-13T05:27:10;12.48;;;5.32;;
34767;SDS011;21755;43.608;1.236;2022-10-13T05:29:37;14.43;;;5.20;;
34767;SDS011;21755;43.608;1.236;2022-10-13T05:32:03;14.63;;;5.13;;
34767;SDS011;21755;43.608;1.236;2022-10-13T05:34:30;15.82;;;5.43;;
34767;SDS011;21755;43.608;1.236;2022-10-13T05:36:57;11.73;;;5.18;;
34767;SDS011;21755;43.608;1.236;2022-10-13T05:39:24;14.30;;;5.00;;
34767;SDS011;21755;43.608;1.236;2022-10-13T05:41:50;9.93;;;5.13;;
34767;SDS011;21755;43.608;1.236;2022-10-13T05:44:16;13.95;;;5.55;;
34767;SDS011;21755;43.608;1.236;2022-10-13T05:46:42;8.23;;;4.97;;
34767;SDS011;21755;43.608;1.236;2022-10-13T05:49:08;11.10;;;5.13;;
34767;SDS011;21755;43.608;1.236;2022-10-13T05:51:39;15.75;;;5.63;;
34767;SDS011;21755;43.608;1.236;2022-10-13T05:54:09;16.88;;;4.85;;
34767;SDS011;21755;43.608;1.236;2022-10-13T05:56:48;13.55;;;5.25;;
34767;SDS011;21755;43.608;1.236;2022-10-13T05:59:21;10.48;;;5.00;;
34767;SDS011;21755;43.608;1.236;2022-10-13T06:01:49;15.25;;;5.57;;
34767;SDS011;21755;43.608;1.236;2022-10-13T06:04:21;9.98;;;5.43;;
34767;SDS011;21755;43.608;1.236;2022-10-13T06:06:51;12.35;;;5.32;;
34767;SDS011;21755;43.608;1.236;2022-10-13T06:09:17;10.93;;;4.68;;
34767;SDS011;21755;43.608;1.236;2022-10-13T06:11:43;16.13;;;5.82;;
34767;SDS011;21755;43.608;1.236;2022-10-13T06:14:09;11.10;;;5.13;;
34767;SDS011;21755;43.608;1.236;2022-10-13T06:16:35;21.63;;;5.53;;
34767;SDS011;21755;43.608;1.236;2022-10-13T06:19:01;12.93;;;5.32;;
34767;SDS011;21755;43.608;1.236;2022-10-13T06:21:28;14.45;;;5.75;;
34767;SDS011;21755;43.608;1.236;2022-10-13T06:23:54;19.25;;;7.22;;
34767;SDS011;21755;43.608;1.236;2022-10-13T06:26:20;14.32;;;6.43;;
34767;SDS011;21755;43.608;1.236;2022-10-13T06:28:46;17.73;;;7.10;;
34767;SDS011;21755;43.608;1.236;2022-10-13T06:31:12;19.02;;;6.22;;
34767;SDS011;21755;43.608;1.236;2022-10-13T06:33:38;14.32;;;6.18;;
34767;SDS011;21755;43.608;1.236;2022-10-13T06:36:05;24.13;;;6.97;;
34767;SDS011;21755;43.608;1.236;2022-10-13T06:38:31;25.77;;;7.90;;
34767;SDS011;21755;43.608;1.236;2022-10-13T06:40:58;19.17;;;7.10;;
34767;SDS011;21755;43.608;1.236;2022-10-13T06:43:26;16.42;;;6.60;;
34767;SDS011;21755;43.608;1.236;2022-10-13T06:45:52;23.42;;;7.40;;
34767;SDS011;21755;43.608;1.236;2022-10-13T06:48:18;17.95;;;6.93;;
34767;SDS011;21755;43.608;1.236;2022-10-13T06:50:44;13.18;;;6.38;;
34767;SDS011;21755;43.608;1.236;2022-10-13T06:53:10;13.93;;;5.70;;
34767;SDS011;21755;43.608;1.236;2022-10-13T06:55:36;22.88;;;7.15;;
34767;SDS011;21755;43.608;1.236;2022-10-13T06:58:02;22.75;;;7.07;;
34767;SDS011;21755;43.608;1.236;2022-10-13T07:00:27;18.50;;;6.72;;
34767;SDS011;21755;43.608;1.236;2022-10-13T07:02:53;14.43;;;6.53;;
34767;SDS011;21755;43.608;1.236;2022-10-13T07:05:19;12.00;;;6.88;;
34767;SDS011;21755;43.608;1.236;2022-10-13T07:07:45;15.30;;;7.13;;
34767;SDS011;21755;43.608;1.236;2022-10-13T07:10:11;15.07;;;6.45;;
34767;SDS011;21755;43.608;1.236;2022-10-13T07:12:38;28.15;;;6.60;;
34767;SDS011;21755;43.608;1.236;2022-10-13T07:15:04;20.08;;;6.97;;
34767;SDS011;21755;43.608;1.236;2022-10-13T07:17:30;18.60;;;6.80;;
34767;SDS011;21755;43.608;1.236;2022-10-13T07:19:56;25.00;;;8.48;;
34767;SDS011;21755;43.608;1.236;2022-10-13T07:22:22;19.13;;;8.75;;
34767;SDS011;21755;43.608;1.236;2022-10-13T07:24:48;27.20;;;9.63;;
34767;SDS011;21755;43.608;1.236;2022-10-13T07:27:14;27.98;;;8.88;;
34767;SDS011;21755;43.608;1.236;2022-10-13T07:29:40;31.15;;;9.98;;
34767;SDS011;21755;43.608;1.236;2022-10-13T07:32:06;23.58;;;9.90;;
34767;SDS011;21755;43.608;1.236;2022-10-13T07:34:32;30.48;;;10.05;;
34767;SDS011;21755;43.608;1.236;2022-10-13T07:36:58;32.33;;;10.70;;
34767;SDS011;21755;43.608;1.236;2022-10-13T07:39:23;37.22;;;10.88;;
34767;SDS011;21755;43.608;1.236;2022-10-13T07:41:49;25.58;;;9.95;;
34767;SDS011;21755;43.608;1.236;2022-10-13T07:44:15;32.85;;;9.73;;
34767;SDS011;21755;43.608;1.236;2022-10-13T07:46:41;57.80;;;11.43;;
34767;SDS011;21755;43.608;1.236;2022-10-13T07:49:08;25.05;;;8.85;;
34767;SDS011;21755;43.608;1.236;2022-10-13T07:51:34;35.40;;;10.05;;
34767;SDS011;21755;43.608;1.236;2022-10-13T07:54:00;23.27;;;8.77;;
34767;SDS011;21755;43.608;1.236;2022-10-13T07:56:26;21.67;;;8.75;;
34767;SDS011;21755;43.608;1.236;2022-10-13T07:58:52;23.52;;;9.07;;
34767;SDS011;21755;43.608;1.236;2022-10-13T08:01:18;21.42;;;8.23;;
34767;SDS011;21755;43.608;1.236;2022-10-13T08:03:44;19.23;;;8.65;;
34767;SDS011;21755;43.608;1.236;2022-10-13T08:06:10;21.80;;;9.02;;
34767;SDS011;21755;43.608;1.236;2022-10-13T08:08:37;20.50;;;8.52;;
34767;SDS011;21755;43.608;1.236;2022-10-13T08:11:08;21.02;;;8.70;;
34767;SDS011;21755;43.608;1.236;2022-10-13T08:13:36;21.40;;;8.23;;
34767;SDS011;21755;43.608;1.236;2022-10-13T08:16:02;24.10;;;8.00;;
34767;SDS011;21755;43.608;1.236;2022-10-13T08:18:29;24.25;;;8.18;;
34767;SDS011;21755;43.608;1.236;2022-10-13T08:20:58;16.58;;;7.32;;
34767;SDS011;21755;43.608;1.236;2022-10-13T08:23:25;23.15;;;8.40;;
34767;SDS011;21755;43.608;1.236;2022-10-13T08:25:51;30.15;;;8.07;;
34767;SDS011;21755;43.608;1.236;2022-10-13T08:28:18;21.73;;;8.15;;
34767;SDS011;21755;43.608;1.236;2022-10-13T08:30:46;20.60;;;7.82;;
34767;SDS011;21755;43.608;1.236;2022-10-13T08:33:12;13.55;;;7.55;;
34767;SDS011;21755;43.608;1.236;2022-10-13T08:35:39;16.60;;;7.32;;
34767;SDS011;21755;43.608;1.236;2022-10-13T08:38:06;12.70;;;6.93;;
34767;SDS011;21755;43.608;1.236;2022-10-13T08:40:32;18.80;;;7.85;;
34767;SDS011;21755;43.608;1.236;2022-10-13T08:42:59;18.25;;;7.60;;
34767;SDS011;21755;43.608;1.236;2022-10-13T08:45:29;17.98;;;7.28;;
34767;SDS011;21755;43.608;1.236;2022-10-13T08:47:56;14.30;;;6.68;;
34767;SDS011;21755;43.608;1.236;2022-10-13T08:50:30;15.32;;;6.72;;
34767;SDS011;21755;43.608;1.236;2022-10-13T08:53:09;24.90;;;6.90;;
34767;SDS011;21755;43.608;1.236;2022-10-13T08:55:55;11.27;;;6.20;;
34767;SDS011;21755;43.608;1.236;2022-10-13T08:58:32;16.40;;;6.18;;
34767;SDS011;21755;43.608;1.236;2022-10-13T09:01:08;16.65;;;6.57;;
34767;SDS011;21755;43.608;1.236;2022-10-13T09:06:35;15.93;;;5.32;;
34767;SDS011;21755;43.608;1.236;2022-10-13T09:09:04;14.65;;;6.15;;
34767;SDS011;21755;43.608;1.236;2022-10-13T09:11:36;16.08;;;6.20;;
34767;SDS011;21755;43.608;1.236;2022-10-13T09:14:05;18.60;;;6.38;;
34767;SDS011;21755;43.608;1.236;2022-10-13T09:16:38;13.73;;;6.07;;
34767;SDS011;21755;43.608;1.236;2022-10-13T09:21:39;14.05;;;5.10;;
34767;SDS011;21755;43.608;1.236;2022-10-13T09:24:06;29.33;;;5.72;;
34767;SDS011;21755;43.608;1.236;2022-10-13T09:26:37;18.27;;;6.40;;
34767;SDS011;21755;43.608;1.236;2022-10-13T09:29:08;11.77;;;5.13;;
34767;SDS011;21755;43.608;1.236;2022-10-13T09:31:43;16.83;;;5.43;;
34767;SDS011;21755;43.608;1.236;2022-10-13T09:37:03;11.25;;;5.20;;
34767;SDS011;21755;43.608;1.236;2022-10-13T09:39:31;15.05;;;4.93;;
34767;SDS011;21755;43.608;1.236;2022-10-13T09:44:42;19.85;;;5.00;;
34767;SDS011;21755;43.608;1.236;2022-10-13T09:47:13;11.90;;;4.10;;
34767;SDS011;21755;43.608;1.236;2022-10-13T09:49:43;14.30;;;4.80;;
34767;SDS011;21755;43.608;1.236;2022-10-13T09:54:46;15.35;;;4.72;;
34767;SDS011;21755;43.608;1.236;2022-10-13T09:57:27;14.57;;;4.05;;
34767;SDS011;21755;43.608;1.236;2022-10-13T10:00:22;13.35;;;4.43;;
34767;SDS011;21755;43.608;1.236;2022-10-13T10:08:30;10.85;;;4.47;;
34767;SDS011;21755;43.608;1.236;2022-10-13T10:11:03;14.80;;;4.03;;
34767;SDS011;21755;43.608;1.236;2022-10-13T10:13:35;12.45;;;3.85;;
34767;SDS011;21755;43.608;1.236;2022-10-13T10:16:09;14.43;;;4.20;;
34767;SDS011;21755;43.608;1.236;2022-10-13T10:18:38;10.38;;;3.72;;
34767;SDS011;21755;43.608;1.236;2022-10-13T10:21:40;15.63;;;3.97;;
34767;SDS011;21755;43.608;1.236;2022-10-13T10:24:17;14.93;;;4.45;;
34767;SDS011;21755;43.608;1.236;2022-10-13T10:27:02;16.67;;;3.95;;
34767;SDS011;21755;43.608;1.236;2022-10-13T10:41:23;8.98;;;3.83;;
34767;SDS011;21755;43.608;1.236;2022-10-13T10:43:55;13.80;;;4.45;;
34767;SDS011;21755;43.608;1.236;2022-10-13T10:46:56;12.55;;;4.05;;
34767;SDS011;21755;43.608;1.236;2022-10-13T10:49:35;12.25;;;4.63;;
34767;SDS011;21755;43.608;1.236;2022-10-13T10:52:06;15.73;;;4.32;;
34767;SDS011;21755;43.608;1.236;2022-10-13T10:57:18;15.77;;;4.07;;
34767;SDS011;21755;43.608;1.236;2022-10-13T11:00:07;11.27;;;3.90;;
34767;SDS011;21755;43.608;1.236;2022-10-13T11:02:53;11.98;;;3.88;;
34767;SDS011;21755;43.608;1.236;2022-10-13T11:08:37;20.58;;;4.60;;
34767;SDS011;21755;43.608;1.236;2022-10-13T11:17:32;11.38;;;4.05;;
34767;SDS011;21755;43.608;1.236;2022-10-13T11:19:58;10.05;;;4.40;;
34767;SDS011;21755;43.608;1.236;2022-10-13T11:22:28;9.63;;;4.35;;
34767;SDS011;21755;43.608;1.236;2022-10-13T11:24:56;12.90;;;4.03;;
34767;SDS011;21755;43.608;1.236;2022-10-13T11:29:59;7.82;;;3.25;;
34767;SDS011;21755;43.608;1.236;2022-10-13T11:41:06;12.38;;;3.78;;
34767;SDS011;21755;43.608;1.236;2022-10-13T11:43:31;16.05;;;4.32;;
34767;SDS011;21755;43.608;1.236;2022-10-13T11:46:22;12.48;;;3.53;;
34767;SDS011;21755;43.608;1.236;2022-10-13T11:54:42;9.50;;;3.67;;
34767;SDS011;21755;43.608;1.236;2022-10-13T11:57:35;18.38;;;3.75;;
34767;SDS011;21755;43.608;1.236;2022-10-13T12:00:02;10.05;;;3.95;;
34767;SDS011;21755;43.608;1.236;2022-10-13T12:02:29;9.25;;;3.88;;
34767;SDS011;21755;43.608;1.236;2022-10-13T12:04:59;23.48;;;4.72;;
34767;SDS011;21755;43.608;1.236;2022-10-13T12:07:43;11.02;;;3.60;;
34767;SDS011;21755;43.608;1.236;2022-10-13T12:10:15;13.07;;;4.00;;
34767;SDS011;21755;43.608;1.236;2022-10-13T12:12:56;9.48;;;3.40;;
34767;SDS011;21755;43.608;1.236;2022-10-13T12:15:30;9.43;;;3.50;;
34767;SDS011;21755;43.608;1.236;2022-10-13T12:17:56;10.98;;;3.65;;
34767;SDS011;21755;43.608;1.236;2022-10-13T12:20:24;10.77;;;3.55;;
34767;SDS011;21755;43.608;1.236;2022-10-13T12:22:53;12.18;;;3.88;;
34767;SDS011;21755;43.608;1.236;2022-10-13T12:25:20;13.98;;;3.60;;
34767;SDS011;21755;43.608;1.236;2022-10-13T12:27:52;7.70;;;3.25;;
34767;SDS011;21755;43.608;1.236;2022-10-13T12:30:30;11.48;;;3.53;;
34767;SDS011;21755;43.608;1.236;2022-10-13T12:33:02;12.20;;;3.55;;
34767;SDS011;21755;43.608;1.236;2022-10-13T12:35:41;10.13;;;3.63;;
34767;SDS011;21755;43.608;1.236;2022-10-13T12:38:12;7.75;;;3.25;;
34767;SDS011;21755;43.608;1.236;2022-10-13T12:40:43;12.30;;;3.00;;
34767;SDS011;21755;43.608;1.236;2022-10-13T12:43:18;5.97;;;2.83;;
34767;SDS011;21755;43.608;1.236;2022-10-13T12:45:49;8.85;;;3.33;;
34767;SDS011;21755;43.608;1.236;2022-10-13T12:48:31;8.15;;;2.70;;
34767;SDS011;21755;43.608;1.236;2022-10-13T12:53:38;9.73;;;3.00;;
34767;SDS011;21755;43.608;1.236;2022-10-13T12:56:04;9.13;;;3.00;;
34767;SDS011;21755;43.608;1.236;2022-10-13T12:58:31;9.50;;;3.22;;
34767;SDS011;21755;43.608;1.236;2022-10-13T13:01:20;12.38;;;3.40;;
34767;SDS011;21755;43.608;1.236;2022-10-13T13:04:00;12.00;;;3.55;;
34767;SDS011;21755;43.608;1.236;2022-10-13T13:06:50;10.10;;;3.72;;
34767;SDS011;21755;43.608;1.236;2022-10-13T13:09:32;11.98;;;3.55;;
34767;SDS011;21755;43.608;1.236;2022-10-13T13:14:34;8.60;;;3.00;;
34767;SDS011;21755;43.608;1.236;2022-10-13T13:19:33;7.97;;;3.25;;
34767;SDS011;21755;43.608;1.236;2022-10-13T13:22:00;9.23;;;3.28;;
34767;SDS011;21755;43.608;1.236;2022-10-13T13:24:28;8.38;;;3.88;;
34767;SDS011;21755;43.608;1.236;2022-10-13T13:26:54;7.80;;;3.30;;
34767;SDS011;21755;43.608;1.236;2022-10-13T13:29:20;9.75;;;3.13;;
34767;SDS011;21755;43.608;1.236;2022-10-13T13:31:46;12.50;;;3.80;;
34767;SDS011;21755;43.608;1.236;2022-10-13T13:34:12;12.27;;;3.75;;
34767;SDS011;21755;43.608;1.236;2022-10-13T13:36:41;5.05;;;3.40;;
34767;SDS011;21755;43.608;1.236;2022-10-13T13:39:12;7.13;;;3.30;;
34767;SDS011;21755;43.608;1.236;2022-10-13T13:45:24;14.10;;;4.30;;
34767;SDS011;21755;43.608;1.236;2022-10-13T13:47:50;10.48;;;3.58;;
34767;SDS011;21755;43.608;1.236;2022-10-13T13:50:21;11.88;;;3.33;;
34767;SDS011;21755;43.608;1.236;2022-10-13T13:52:51;18.90;;;3.58;;
34767;SDS011;21755;43.608;1.236;2022-10-13T13:55:17;9.02;;;3.80;;
34767;SDS011;21755;43.608;1.236;2022-10-13T13:57:44;8.15;;;3.85;;
34767;SDS011;21755;43.608;1.236;2022-10-13T14:00:11;7.72;;;3.20;;
34767;SDS011;21755;43.608;1.236;2022-10-13T14:02:38;12.10;;;3.50;;
34767;SDS011;21755;43.608;1.236;2022-10-13T14:05:05;7.03;;;3.15;;
34767;SDS011;21755;43.608;1.236;2022-10-13T14:07:31;10.75;;;3.30;;
34767;SDS011;21755;43.608;1.236;2022-10-13T14:09:57;9.77;;;3.35;;
34767;SDS011;21755;43.608;1.236;2022-10-13T14:12:23;8.30;;;3.03;;
34767;SDS011;21755;43.608;1.236;2022-10-13T14:14:50;7.57;;;2.60;;
34767;SDS011;21755;43.608;1.236;2022-10-13T14:17:16;10.90;;;3.60;;
34767;SDS011;21755;43.608;1.236;2022-10-13T14:19:42;7.75;;;3.70;;
34767;SDS011;21755;43.608;1.236;2022-10-13T14:22:08;6.90;;;3.15;;
34767;SDS011;21755;43.608;1.236;2022-10-13T14:24:33;12.13;;;3.83;;
34767;SDS011;21755;43.608;1.236;2022-10-13T14:26:59;6.63;;;3.22;;
34767;SDS011;21755;43.608;1.236;2022-10-13T14:29:26;7.78;;;3.38;;
34767;SDS011;21755;43.608;1.236;2022-10-13T14:31:52;7.05;;;3.47;;
34767;SDS011;21755;43.608;1.236;2022-10-13T14:34:18;8.18;;;3.65;;
34767;SDS011;21755;43.608;1.236;2022-10-13T14:36:45;10.68;;;3.88;;
34767;SDS011;21755;43.608;1.236;2022-10-13T14:39:11;9.35;;;3.20;;
34767;SDS011;21755;43.608;1.236;2022-10-13T14:41:37;9.85;;;3.47;;
34767;SDS011;21755;43.608;1.236;2022-10-13T14:44:03;11.63;;;3.50;;
34767;SDS011;21755;43.608;1.236;2022-10-13T14:46:29;9.73;;;3.72;;
34767;SDS011;21755;43.608;1.236;2022-10-13T14:48:58;8.30;;;3.80;;
34767;SDS011;21755;43.608;1.236;2022-10-13T14:51:27;7.72;;;3.17;;
34767;SDS011;21755;43.608;1.236;2022-10-13T14:54:11;8.20;;;3.25;;
34767;SDS011;21755;43.608;1.236;2022-10-13T14:56:55;13.82;;;3.58;;
34767;SDS011;21755;43.608;1.236;2022-10-13T14:59:24;12.23;;;3.88;;
34767;SDS011;21755;43.608;1.236;2022-10-13T15:02:09;8.23;;;3.20;;
34767;SDS011;21755;43.608;1.236;2022-10-13T15:04:36;9.02;;;3.63;;
34767;SDS011;21755;43.608;1.236;2022-10-13T15:07:20;11.07;;;3.63;;
34767;SDS011;21755;43.608;1.236;2022-10-13T15:10:07;10.45;;;4.30;;
34767;SDS011;21755;43.608;1.236;2022-10-13T15:22:38;32.22;;;6.07;;
34767;SDS011;21755;43.608;1.236;2022-10-13T15:25:05;26.60;;;6.10;;
34767;SDS011;21755;43.608;1.236;2022-10-13T15:27:34;13.05;;;3.60;;
34767;SDS011;21755;43.608;1.236;2022-10-13T15:30:00;11.32;;;3.40;;
34767;SDS011;21755;43.608;1.236;2022-10-13T15:42:13;13.13;;;3.88;;
34767;SDS011;21755;43.608;1.236;2022-10-13T15:56:03;9.82;;;2.97;;
34767;SDS011;21755;43.608;1.236;2022-10-13T15:58:29;15.93;;;3.03;;
34767;SDS011;21755;43.608;1.236;2022-10-13T16:00:55;8.75;;;2.70;;
34767;SDS011;21755;43.608;1.236;2022-10-13T16:03:21;11.38;;;3.42;;
34767;SDS011;21755;43.608;1.236;2022-10-13T16:05:48;10.40;;;3.22;;
34767;SDS011;21755;43.608;1.236;2022-10-13T16:08:14;6.93;;;2.47;;
34767;SDS011;21755;43.608;1.236;2022-10-13T16:10:40;12.20;;;2.92;;
34767;SDS011;21755;43.608;1.236;2022-10-13T16:13:07;10.52;;;3.25;;
34767;SDS011;21755;43.608;1.236;2022-10-13T16:15:36;9.50;;;3.25;;
34767;SDS011;21755;43.608;1.236;2022-10-13T16:18:02;8.48;;;2.35;;
34767;SDS011;21755;43.608;1.236;2022-10-13T16:20:29;8.90;;;2.67;;
34767;SDS011;21755;43.608;1.236;2022-10-13T16:22:59;13.77;;;3.22;;
34767;SDS011;21755;43.608;1.236;2022-10-13T16:25:25;9.20;;;3.40;;
34767;SDS011;21755;43.608;1.236;2022-10-13T16:27:51;10.55;;;3.90;;
34767;SDS011;21755;43.608;1.236;2022-10-13T16:30:17;11.82;;;3.10;;
34767;SDS011;21755;43.608;1.236;2022-10-13T16:32:43;9.85;;;3.85;;
34767;SDS011;21755;43.608;1.236;2022-10-13T16:35:15;10.57;;;3.45;;
34767;SDS011;21755;43.608;1.236;2022-10-13T16:47:32;12.63;;;3.28;;
34767;SDS011;21755;43.608;1.236;2022-10-13T16:49:58;7.43;;;3.80;;
34767;SDS011;21755;43.608;1.236;2022-10-13T16:52:24;10.57;;;3.80;;
34767;SDS011;21755;43.608;1.236;2022-10-13T16:54:50;11.43;;;3.80;;
34767;SDS011;21755;43.608;1.236;2022-10-13T16:57:16;9.68;;;3.53;;
34767;SDS011;21755;43.608;1.236;2022-10-13T16:59:42;10.05;;;3.22;;
34767;SDS011;21755;43.608;1.236;2022-10-13T17:02:26;16.45;;;4.35;;
34767;SDS011;21755;43.608;1.236;2022-10-13T17:14:52;8.30;;;3.63;;
34767;SDS011;21755;43.608;1.236;2022-10-13T17:17:18;9.23;;;3.25;;
34767;SDS011;21755;43.608;1.236;2022-10-13T17:19:44;12.50;;;3.35;;
34767;SDS011;21755;43.608;1.236;2022-10-13T17:22:10;11.20;;;3.67;;
34767;SDS011;21755;43.608;1.236;2022-10-13T17:24:36;8.85;;;3.63;;
34767;SDS011;21755;43.608;1.236;2022-10-13T17:27:02;10.10;;;3.50;;
34767;SDS011;21755;43.608;1.236;2022-10-13T17:29:29;10.02;;;3.47;;
34767;SDS011;21755;43.608;1.236;2022-10-13T17:31:55;8.50;;;4.07;;
34767;SDS011;21755;43.608;1.236;2022-10-13T17:34:21;10.65;;;3.70;;
34767;SDS011;21755;43.608;1.236;2022-10-13T17:36:47;9.10;;;3.63;;
34767;SDS011;21755;43.608;1.236;2022-10-13T17:39:13;14.55;;;5.03;;
34767;SDS011;21755;43.608;1.236;2022-10-13T17:41:41;8.80;;;4.43;;
34767;SDS011;21755;43.608;1.236;2022-10-13T17:44:08;10.95;;;3.83;;
34767;SDS011;21755;43.608;1.236;2022-10-13T17:46:35;10.90;;;4.15;;
34767;SDS011;21755;43.608;1.236;2022-10-13T17:49:09;10.00;;;3.97;;
34767;SDS011;21755;43.608;1.236;2022-10-13T17:51:36;10.60;;;4.05;;
34767;SDS011;21755;43.608;1.236;2022-10-13T17:54:06;9.48;;;3.95;;
34767;SDS011;21755;43.608;1.236;2022-10-13T17:56:33;9.00;;;4.05;;
34767;SDS011;21755;43.608;1.236;2022-10-13T17:58:59;10.98;;;4.20;;
34767;SDS011;21755;43.608;1.236;2022-10-13T18:01:32;12.35;;;4.63;;